createdAt,value
2023-01-30T00:01:51.820Z,35.00
2023-01-30T00:04:19.980Z,40.65
2023-01-30T00:06:49.528Z,36.63
2023-01-30T00:09:17.556Z,37.25
2023-01-30T00:11:45.331Z,38.53
2023-01-30T00:14:13.192Z,36.97
2023-01-30T00:16:42.034Z,44.00
2023-01-30T00:19:09.979Z,46.63
2023-01-30T00:21:37.896Z,44.88
2023-01-30T00:24:08.221Z,41.88
2023-01-30T00:26:36.080Z,46.90
2023-01-30T00:29:03.824Z,43.85
2023-01-30T00:31:31.627Z,43.50
2023-01-30T00:33:59.480Z,39.80
2023-01-30T00:36:27.229Z,45.72
2023-01-30T00:38:58.101Z,40.90
2023-01-30T00:41:48.542Z,43.50
2023-01-30T00:44:33.616Z,40.40
2023-01-30T00:47:08.833Z,45.47
2023-01-30T00:49:37.132Z,44.28
2023-01-30T00:52:05.582Z,45.53
2023-01-30T00:54:33.767Z,44.70
2023-01-30T00:57:02.888Z,45.90
2023-01-30T00:59:30.731Z,43.42
2023-01-30T01:01:58.650Z,39.53
2023-01-30T01:04:26.755Z,41.00
2023-01-30T01:06:54.510Z,47.97
2023-01-30T01:09:22.280Z,42.97
2023-01-30T01:11:50.180Z,44.35
2023-01-30T01:14:19.334Z,43.33
2023-01-30T01:16:47.280Z,48.45
2023-01-30T01:19:15.353Z,47.55
2023-01-30T01:21:43.090Z,39.10
2023-01-30T01:24:13.675Z,37.83
2023-01-30T01:26:41.858Z,40.13
2023-01-30T01:29:13.222Z,45.97
2023-01-30T01:31:42.753Z,41.70
2023-01-30T01:34:10.840Z,42.20
2023-01-30T01:36:54.944Z,42.20
2023-01-30T01:39:23.737Z,37.17
2023-01-30T01:41:50.924Z,40.53
2023-01-30T01:44:19.005Z,42.10
2023-01-30T01:46:52.101Z,41.60
2023-01-30T01:49:23.882Z,41.22
2023-01-30T01:51:56.478Z,40.13
2023-01-30T01:54:30.706Z,43.75
2023-01-30T01:57:02.638Z,41.67
2023-01-30T02:02:12.749Z,38.55
2023-01-30T02:05:03.338Z,39.33
2023-01-30T02:07:36.129Z,42.25
2023-01-30T02:10:04.297Z,37.35
2023-01-30T02:12:32.520Z,48.20
2023-01-30T02:15:01.822Z,47.08
2023-01-30T02:17:30.953Z,41.83
2023-01-30T02:20:06.604Z,42.10
2023-01-30T02:23:09.944Z,38.25
2023-01-30T02:26:05.797Z,39.92
2023-01-30T02:28:53.239Z,41.13
2023-01-30T02:31:30.253Z,45.85
2023-01-30T02:34:26.050Z,45.45
2023-01-30T02:37:05.751Z,43.30
2023-01-30T02:39:41.621Z,42.95
2023-01-30T02:42:18.293Z,44.92
2023-01-30T02:44:54.267Z,41.05
2023-01-30T02:47:30.966Z,44.78
2023-01-30T02:50:04.209Z,47.25
2023-01-30T02:52:32.887Z,45.80
2023-01-30T02:55:00.691Z,46.80
2023-01-30T02:57:28.742Z,45.55
2023-01-30T03:00:00.463Z,44.30
2023-01-30T03:02:50.702Z,54.60
2023-01-30T03:05:32.617Z,51.33
2023-01-30T03:08:14.485Z,50.95
2023-01-30T03:10:50.686Z,48.78
2023-01-30T03:13:27.549Z,44.85
2023-01-30T03:16:01.054Z,50.25
2023-01-30T03:18:30.653Z,50.90
2023-01-30T03:21:05.415Z,50.45
2023-01-30T03:23:33.211Z,53.38
2023-01-30T03:26:01.744Z,53.42
2023-01-30T03:28:30.160Z,50.85
2023-01-30T03:30:57.995Z,48.13
2023-01-30T03:33:25.822Z,49.50
2023-01-30T03:35:54.963Z,51.65
2023-01-30T03:38:23.224Z,46.58
2023-01-30T03:40:51.279Z,52.03
2023-01-30T03:43:19.110Z,47.75
2023-01-30T03:45:46.945Z,48.25
2023-01-30T03:48:14.728Z,50.38
2023-01-30T03:50:42.603Z,45.97
2023-01-30T03:53:11.949Z,45.65
2023-01-30T03:55:40.423Z,43.70
2023-01-30T03:58:08.216Z,41.42
2023-01-30T04:00:35.935Z,44.60
2023-01-30T04:03:03.803Z,46.33
2023-01-30T04:05:31.607Z,43.90
2023-01-30T04:07:59.558Z,51.25
2023-01-30T04:10:28.786Z,41.47
2023-01-30T04:12:56.566Z,45.13
2023-01-30T04:15:24.377Z,44.28
2023-01-30T04:17:52.148Z,46.03
2023-01-30T04:20:21.046Z,44.38
2023-01-30T04:22:48.940Z,41.42
2023-01-30T04:25:17.188Z,41.00
2023-01-30T04:27:46.707Z,45.10
2023-01-30T04:30:14.689Z,44.40
2023-01-30T04:32:42.470Z,39.17
2023-01-30T04:35:11.089Z,41.75
2023-01-30T04:37:39.263Z,42.75
2023-01-30T04:40:08.468Z,45.15
2023-01-30T04:42:36.324Z,46.30
2023-01-30T04:45:06.415Z,40.88
2023-01-30T04:47:34.263Z,41.70
2023-01-30T04:50:02.161Z,44.90
2023-01-30T04:52:30.050Z,43.22
2023-01-30T04:54:57.769Z,40.33
2023-01-30T04:57:25.840Z,42.22
2023-01-30T04:59:53.584Z,42.78
2023-01-30T05:02:23.788Z,45.13
2023-01-30T05:04:51.764Z,43.25
2023-01-30T05:07:19.499Z,40.75
2023-01-30T05:09:47.293Z,41.22
2023-01-30T05:12:15.120Z,40.88
2023-01-30T05:14:43.078Z,43.10
2023-01-30T05:17:10.880Z,43.30
2023-01-30T05:19:40.133Z,49.05
2023-01-30T05:22:08.074Z,44.28
2023-01-30T05:24:36.758Z,50.03
2023-01-30T05:27:04.566Z,42.92
2023-01-30T05:29:32.393Z,42.97
2023-01-30T05:32:00.242Z,44.25
2023-01-30T05:34:28.201Z,43.60
2023-01-30T05:36:57.440Z,47.20
2023-01-30T05:39:25.303Z,42.50
2023-01-30T05:41:53.205Z,49.45
2023-01-30T05:44:21.013Z,44.78
2023-01-30T05:46:48.772Z,51.08
2023-01-30T05:49:16.953Z,47.88
2023-01-30T05:51:44.715Z,46.55
2023-01-30T05:54:14.125Z,46.50
2023-01-30T05:56:41.978Z,48.08
2023-01-30T05:59:12.524Z,44.88
2023-01-30T06:01:40.257Z,51.10
2023-01-30T06:04:08.129Z,51.65
2023-01-30T06:06:39.314Z,50.78
2023-01-30T06:09:07.134Z,48.60
2023-01-30T06:11:36.346Z,55.47
2023-01-30T06:14:04.157Z,60.30
2023-01-30T06:16:32.003Z,50.78
2023-01-30T06:18:59.916Z,49.00
2023-01-30T06:21:27.835Z,49.35
2023-01-30T06:23:55.614Z,58.83
2023-01-30T06:26:23.433Z,58.65
2023-01-30T06:28:52.663Z,55.90
2023-01-30T06:31:20.545Z,49.65
2023-01-30T06:33:49.654Z,51.40
2023-01-30T06:36:17.385Z,51.00
2023-01-30T06:38:45.174Z,49.78
2023-01-30T06:41:13.087Z,53.22
2023-01-30T06:43:42.785Z,50.70
2023-01-30T06:46:12.050Z,53.22
2023-01-30T06:48:40.029Z,50.22
2023-01-30T06:51:07.804Z,56.67
2023-01-30T06:53:35.538Z,49.25
2023-01-30T06:56:03.493Z,57.33
2023-01-30T06:58:31.433Z,59.83
2023-01-30T07:01:01.082Z,52.67
2023-01-30T07:03:30.223Z,47.67
2023-01-30T07:05:57.975Z,54.17
2023-01-30T07:08:25.786Z,53.25
2023-01-30T07:10:53.921Z,53.85
2023-01-30T07:13:21.795Z,49.22
2023-01-30T07:15:49.701Z,48.30
2023-01-30T07:18:17.500Z,48.08
2023-01-30T07:20:49.712Z,49.60
2023-01-30T07:23:17.957Z,58.22
2023-01-30T07:25:45.856Z,48.92
2023-01-30T07:28:13.694Z,53.08
2023-01-30T07:30:41.652Z,50.33
2023-01-30T07:33:09.533Z,52.17
2023-01-30T07:35:38.351Z,50.80
2023-01-30T07:38:07.580Z,51.85
2023-01-30T07:40:35.793Z,49.67
2023-01-30T07:43:05.177Z,49.83
2023-01-30T07:45:37.827Z,49.95
2023-01-30T07:48:05.878Z,44.75
2023-01-30T07:50:33.661Z,46.03
2023-01-30T07:53:04.270Z,44.45
2023-01-30T07:55:33.722Z,43.17
2023-01-30T07:58:01.608Z,45.97
2023-01-30T08:00:29.564Z,40.78
2023-01-30T08:02:57.295Z,44.35
2023-01-30T08:05:25.189Z,36.78
2023-01-30T08:07:53.697Z,37.78
2023-01-30T08:10:21.740Z,38.72
2023-01-30T08:12:52.368Z,46.55
2023-01-30T08:15:21.948Z,34.60
2023-01-30T08:17:55.294Z,35.05
2023-01-30T08:20:23.142Z,31.35
2023-01-30T08:22:50.907Z,32.42
2023-01-30T08:25:18.969Z,37.42
2023-01-30T08:27:46.861Z,35.65
2023-01-30T08:30:16.501Z,30.45
2023-01-30T08:32:44.472Z,32.50
2023-01-30T08:35:12.447Z,30.30
2023-01-30T08:37:40.450Z,29.08
2023-01-30T08:40:09.258Z,34.00
2023-01-30T08:42:37.068Z,27.58
2023-01-30T08:45:05.302Z,25.92
2023-01-30T08:47:35.516Z,31.73
2023-01-30T08:50:03.743Z,29.50
2023-01-30T08:52:32.943Z,29.73
2023-01-30T08:55:00.764Z,29.25
2023-01-30T08:57:28.716Z,27.98
2023-01-30T08:59:56.497Z,25.70
2023-01-30T09:02:24.288Z,31.83
2023-01-30T09:04:53.495Z,31.77
2023-01-30T09:07:21.326Z,31.40
2023-01-30T09:09:49.543Z,28.45
2023-01-30T09:12:17.318Z,27.15
2023-01-30T09:14:45.148Z,30.80
2023-01-30T09:17:13.671Z,28.33
2023-01-30T09:19:41.769Z,31.00
2023-01-30T09:22:10.929Z,25.15
2023-01-30T09:24:38.660Z,24.83
2023-01-30T09:27:06.635Z,30.75
2023-01-30T09:29:34.849Z,29.00
2023-01-30T09:32:02.597Z,27.60
2023-01-30T09:34:30.397Z,27.23
2023-01-30T09:37:00.129Z,30.48
2023-01-30T09:39:29.776Z,27.15
2023-01-30T09:42:37.130Z,32.33
2023-01-30T09:45:22.008Z,36.95
2023-01-30T09:48:01.820Z,38.00
2023-01-30T09:50:49.126Z,41.50
2023-01-30T09:53:23.592Z,30.90
2023-01-30T09:55:55.362Z,37.97
2023-01-30T09:58:25.658Z,36.13
2023-01-30T10:00:59.891Z,31.10
2023-01-30T10:03:34.367Z,30.17
2023-01-30T10:06:06.763Z,31.52
2023-01-30T10:08:46.917Z,39.65
2023-01-30T10:11:27.572Z,39.70
2023-01-30T10:14:16.798Z,33.67
2023-01-30T10:16:55.546Z,35.17
2023-01-30T10:19:55.940Z,37.42
2023-01-30T10:22:41.026Z,32.05
2023-01-30T10:25:24.290Z,33.17
2023-01-30T10:27:58.643Z,32.90
2023-01-30T10:30:26.958Z,36.55
2023-01-30T10:32:58.371Z,39.03
2023-01-30T10:35:32.627Z,30.88
2023-01-30T10:38:08.576Z,31.67
2023-01-30T10:40:40.996Z,37.78
2023-01-30T10:43:19.568Z,29.35
2023-01-30T10:45:56.505Z,34.50
2023-01-30T10:48:43.976Z,36.38
2023-01-30T10:51:24.710Z,32.42
2023-01-30T10:53:58.287Z,35.90
2023-01-30T10:56:35.929Z,35.70
2023-01-30T10:59:16.970Z,32.90
2023-01-30T11:01:49.431Z,30.02
2023-01-30T11:04:26.279Z,29.08
2023-01-30T11:06:56.851Z,35.42
2023-01-30T11:09:24.776Z,40.13
2023-01-30T11:11:54.001Z,27.73
2023-01-30T11:14:23.433Z,33.22
2023-01-30T11:16:54.328Z,28.23
2023-01-30T11:19:25.287Z,29.00
2023-01-30T11:21:55.751Z,30.05
2023-01-30T11:24:26.288Z,35.38
2023-01-30T11:26:54.015Z,41.53
2023-01-30T11:29:32.750Z,31.90
2023-01-30T11:32:04.115Z,31.70
2023-01-30T11:34:32.329Z,31.75
2023-01-30T11:37:16.057Z,34.40
2023-01-30T11:39:54.182Z,30.98
2023-01-30T11:42:26.325Z,33.78
2023-01-30T11:45:16.222Z,34.20
2023-01-30T11:47:57.676Z,32.30
2023-01-30T11:50:35.341Z,31.13
2023-01-30T11:53:13.488Z,35.63
2023-01-30T11:55:49.960Z,35.25
2023-01-30T11:58:32.863Z,32.80
2023-01-30T12:01:03.222Z,28.17
2023-01-30T12:03:31.384Z,31.13
2023-01-30T12:06:00.379Z,31.77
2023-01-30T12:08:41.766Z,33.58
2023-01-30T12:11:26.638Z,33.13
2023-01-30T12:13:56.391Z,41.15
2023-01-30T12:16:32.310Z,31.25
2023-01-30T12:19:07.424Z,32.58
2023-01-30T12:21:43.797Z,27.25
2023-01-30T12:24:22.052Z,26.05
2023-01-30T12:26:57.503Z,34.20
2023-01-30T12:29:30.894Z,31.25
2023-01-30T12:34:34.926Z,29.15
2023-01-30T12:37:30.865Z,28.75
2023-01-30T12:40:08.221Z,31.92
2023-01-30T12:42:53.441Z,31.88
2023-01-30T12:45:24.300Z,27.50
2023-01-30T12:48:22.632Z,31.90
2023-01-30T12:51:05.044Z,31.88
2023-01-30T12:53:42.321Z,28.90
2023-01-30T12:56:30.068Z,29.90
2023-01-30T12:59:03.356Z,32.40
2023-01-30T13:01:44.405Z,26.70
2023-01-30T13:04:25.819Z,28.35
2023-01-30T13:07:04.100Z,30.30
2023-01-30T13:09:43.563Z,27.05
2023-01-30T13:12:18.002Z,33.83
2023-01-30T13:14:55.401Z,26.83
2023-01-30T13:17:39.239Z,28.73
2023-01-30T13:20:21.191Z,27.98
2023-01-30T13:22:56.866Z,31.98
2023-01-30T13:25:33.670Z,24.40
2023-01-30T13:28:05.770Z,23.38
2023-01-30T13:33:10.378Z,24.13
2023-01-30T13:35:46.354Z,23.75
2023-01-30T13:38:20.780Z,25.23
2023-01-30T13:40:50.675Z,25.85
2023-01-30T13:43:23.370Z,31.83
2023-01-30T13:45:55.851Z,20.95
2023-01-30T13:48:38.177Z,22.70
2023-01-30T13:51:21.039Z,24.45
2023-01-30T13:53:56.215Z,24.25
2023-01-30T13:56:41.380Z,26.90
2023-01-30T13:59:20.938Z,19.45
2023-01-30T14:02:20.549Z,19.10
2023-01-30T14:04:51.233Z,20.73
2023-01-30T14:07:27.485Z,20.80
2023-01-30T14:10:14.233Z,18.75
2023-01-30T14:12:44.388Z,22.23
2023-01-30T14:15:29.042Z,20.85
2023-01-30T14:18:02.468Z,22.33
2023-01-30T14:20:32.275Z,18.23
2023-01-30T14:23:03.434Z,22.40
2023-01-30T14:25:45.450Z,15.27
2023-01-30T14:28:52.638Z,27.33
2023-01-30T14:31:48.810Z,20.55
2023-01-30T14:35:10.371Z,24.80
2023-01-30T14:38:13.612Z,20.23
2023-01-30T14:40:50.484Z,18.80
2023-01-30T14:43:52.332Z,22.75
2023-01-30T14:49:30.841Z,22.10
2023-01-30T14:51:59.058Z,17.85
2023-01-30T14:54:41.837Z,20.63
2023-01-30T14:57:32.568Z,23.95
2023-01-30T15:00:16.111Z,23.05
2023-01-30T15:02:52.889Z,21.63
2023-01-30T15:05:27.169Z,18.83
2023-01-30T15:07:59.492Z,22.30
2023-01-30T15:10:45.368Z,20.48
2023-01-30T15:13:31.640Z,19.98
2023-01-30T15:16:11.328Z,22.50
2023-01-30T15:18:52.541Z,23.27
2023-01-30T15:21:45.505Z,21.90
2023-01-30T15:24:49.279Z,24.42
2023-01-30T15:27:27.225Z,21.35
2023-01-30T15:30:05.557Z,23.35
2023-01-30T15:32:34.634Z,27.30
2023-01-30T15:35:04.526Z,21.98
2023-01-30T15:37:35.501Z,22.10
2023-01-30T15:40:24.921Z,20.67
2023-01-30T15:42:58.302Z,22.15
2023-01-30T15:45:37.664Z,25.55
2023-01-30T15:48:27.644Z,23.83
2023-01-30T15:50:58.756Z,21.45
2023-01-30T15:53:31.065Z,24.35
2023-01-30T15:56:00.377Z,25.08
2023-01-30T15:58:29.358Z,22.42
2023-01-30T16:01:01.985Z,24.85
2023-01-30T16:03:34.226Z,21.35
2023-01-30T16:06:02.068Z,22.40
2023-01-30T16:08:34.923Z,31.00
2023-01-30T16:11:03.641Z,19.45
2023-01-30T16:13:33.523Z,30.98
2023-01-30T16:16:07.455Z,27.75
2023-01-30T16:18:39.947Z,32.25
2023-01-30T16:21:11.070Z,25.08
2023-01-30T16:23:42.902Z,25.07
2023-01-30T16:26:18.059Z,24.52
2023-01-30T16:28:46.226Z,27.05
2023-01-30T16:31:16.490Z,24.70
2023-01-30T16:33:51.345Z,28.55
2023-01-30T16:36:33.036Z,28.98
2023-01-30T16:39:01.211Z,24.95
2023-01-30T16:41:34.170Z,25.05
2023-01-30T16:44:20.077Z,33.83
2023-01-30T16:46:51.914Z,26.27
2023-01-30T16:49:23.962Z,26.20
2023-01-30T16:54:30.805Z,25.05
2023-01-30T16:57:00.249Z,26.80
2023-01-30T16:59:32.476Z,23.90
2023-01-30T17:02:03.578Z,23.48
2023-01-30T17:04:33.231Z,24.10
2023-01-30T17:07:04.128Z,25.00
2023-01-30T17:09:43.713Z,31.15
2023-01-30T17:12:39.588Z,26.90
2023-01-30T17:15:33.405Z,28.42
2023-01-30T17:18:03.046Z,32.17
2023-01-30T17:20:41.159Z,27.05
2023-01-30T17:23:11.000Z,30.45
2023-01-30T17:25:43.058Z,31.23
2023-01-30T17:30:46.445Z,29.98
2023-01-30T17:33:15.548Z,34.22
2023-01-30T17:35:43.391Z,29.30
2023-01-30T17:38:12.471Z,30.45
2023-01-30T17:40:40.780Z,32.88
2023-01-30T17:43:09.577Z,35.08
2023-01-30T17:45:37.563Z,32.58
2023-01-30T17:48:05.930Z,34.13
2023-01-30T17:50:36.539Z,32.47
2023-01-30T17:53:04.886Z,34.25
2023-01-30T17:55:33.894Z,30.02
2023-01-30T17:58:01.832Z,35.17
2023-01-30T18:00:29.675Z,30.83
2023-01-30T18:02:57.487Z,33.63
2023-01-30T18:05:25.767Z,34.67
2023-01-30T18:07:54.954Z,34.45
2023-01-30T18:10:22.892Z,36.42
2023-01-30T18:12:50.766Z,37.42
2023-01-30T18:15:18.924Z,36.08
2023-01-30T18:17:49.464Z,34.72
2023-01-30T18:20:21.028Z,37.13
2023-01-30T18:25:18.738Z,39.60
2023-01-30T18:27:48.098Z,35.17
2023-01-30T18:30:17.588Z,39.47
2023-01-30T18:32:52.867Z,36.45
2023-01-30T18:35:21.634Z,38.15
2023-01-30T18:37:50.048Z,40.70
2023-01-30T18:40:20.042Z,36.97
2023-01-30T18:42:48.180Z,42.80
2023-01-30T18:45:16.248Z,36.00
2023-01-30T18:47:44.075Z,40.20
2023-01-30T18:50:12.503Z,38.85
2023-01-30T18:52:40.286Z,37.05
2023-01-30T18:55:08.737Z,36.22
2023-01-30T18:57:37.969Z,39.65
2023-01-30T19:00:07.072Z,38.05
2023-01-30T19:02:34.946Z,33.55
2023-01-30T19:05:02.849Z,33.50
2023-01-30T19:07:30.626Z,39.28
2023-01-30T19:09:59.495Z,32.95
2023-01-30T19:12:44.591Z,39.17
2023-01-30T19:15:13.868Z,35.42
2023-01-30T19:17:41.776Z,38.58
2023-01-30T19:20:12.100Z,40.50
2023-01-30T19:22:40.549Z,35.30
2023-01-30T19:25:09.293Z,38.10
2023-01-30T19:27:38.391Z,36.83
2023-01-30T19:30:07.559Z,35.05
2023-01-30T19:32:36.796Z,35.88
2023-01-30T19:35:05.028Z,34.63
2023-01-30T19:37:33.030Z,36.15
2023-01-30T19:40:01.016Z,31.52
2023-01-30T19:42:28.863Z,30.23
2023-01-30T19:44:56.962Z,28.08
2023-01-30T19:47:24.919Z,81.90
2023-01-30T19:49:55.834Z,39.63
2023-01-30T19:52:23.785Z,34.55
2023-01-30T19:54:51.726Z,31.33
2023-01-30T19:57:19.556Z,29.27
2023-01-30T19:59:47.334Z,28.70
2023-01-30T20:02:17.063Z,30.13
2023-01-30T20:04:45.013Z,28.23
2023-01-30T20:07:14.162Z,31.10
2023-01-30T20:09:41.946Z,27.58
2023-01-30T20:12:09.770Z,28.23
2023-01-30T20:14:37.689Z,30.35
2023-01-30T20:17:05.608Z,27.00
2023-01-30T20:19:33.406Z,28.13
2023-01-30T20:22:06.729Z,26.98
2023-01-30T20:24:35.946Z,32.83
2023-01-30T20:27:04.093Z,30.13
2023-01-30T20:29:32.004Z,27.10
2023-01-30T20:31:59.846Z,27.50
2023-01-30T20:34:27.727Z,31.38
2023-01-30T20:36:55.514Z,26.92
2023-01-30T20:39:23.613Z,28.67
2023-01-30T20:41:52.946Z,23.60
2023-01-30T20:44:21.416Z,27.10
2023-01-30T20:46:50.122Z,24.77
2023-01-30T20:49:20.233Z,25.60
2023-01-30T20:51:50.140Z,26.55
2023-01-30T20:54:19.271Z,28.50
2023-01-30T20:56:49.253Z,28.58
2023-01-30T20:59:21.161Z,28.75
2023-01-30T21:01:48.953Z,26.48
2023-01-30T21:04:18.186Z,26.85
2023-01-30T21:06:47.208Z,28.17
2023-01-30T21:09:17.509Z,30.95
2023-01-30T21:11:46.693Z,75.95
2023-01-30T21:14:14.843Z,31.58
2023-01-30T21:16:44.165Z,32.58
2023-01-30T21:19:15.184Z,33.45
2023-01-30T21:21:46.941Z,32.23
2023-01-30T21:24:16.134Z,31.40
2023-01-30T21:26:46.439Z,31.88
2023-01-30T21:29:15.976Z,33.72
2023-01-30T21:31:45.753Z,29.65
2023-01-30T21:34:14.630Z,31.02
2023-01-30T21:36:42.514Z,30.13
2023-01-30T21:39:31.572Z,27.13
2023-01-30T21:42:16.838Z,31.02
2023-01-30T21:44:44.645Z,31.55
2023-01-30T21:47:13.784Z,38.70
2023-01-30T21:49:44.052Z,27.92
2023-01-30T21:52:11.768Z,30.45
2023-01-30T21:54:40.034Z,37.78
2023-01-30T21:57:07.879Z,29.92
2023-01-30T21:59:35.763Z,29.38
2023-01-30T22:02:03.647Z,42.47
2023-01-30T22:04:35.497Z,33.13
2023-01-30T22:07:06.425Z,31.17
2023-01-30T22:09:34.611Z,31.42
2023-01-30T22:12:02.371Z,29.70
2023-01-30T22:14:30.937Z,32.00
2023-01-30T22:16:58.770Z,29.80
2023-01-30T22:19:26.629Z,31.17
2023-01-30T22:21:55.822Z,32.38
2023-01-30T22:24:24.062Z,32.15
2023-01-30T22:26:52.245Z,31.25
2023-01-30T22:29:22.914Z,29.75
2023-01-30T22:31:51.083Z,28.77
2023-01-30T22:34:19.371Z,24.45
2023-01-30T22:36:48.004Z,21.67
2023-01-30T22:39:17.151Z,21.73
2023-01-30T22:41:44.915Z,24.42
2023-01-30T22:44:13.066Z,21.02
2023-01-30T22:46:41.596Z,19.88
2023-01-30T22:49:10.733Z,18.58
2023-01-30T22:51:40.646Z,20.73
2023-01-30T22:54:12.735Z,19.13
2023-01-30T22:56:44.160Z,21.13
2023-01-30T22:59:12.511Z,21.35
2023-01-30T23:01:41.697Z,21.08
2023-01-30T23:04:13.474Z,20.83
2023-01-30T23:06:42.100Z,19.27
2023-01-30T23:09:14.379Z,18.88
2023-01-30T23:11:45.101Z,17.48
2023-01-30T23:14:15.250Z,18.88
2023-01-30T23:16:45.308Z,18.05
2023-01-30T23:19:13.648Z,18.35
2023-01-30T23:21:43.507Z,18.88
2023-01-30T23:24:13.163Z,15.85
2023-01-30T23:26:44.767Z,15.90
2023-01-30T23:29:16.217Z,17.38
2023-01-30T23:31:45.551Z,17.92
2023-01-30T23:34:15.258Z,17.52
2023-01-30T23:36:43.700Z,16.23
2023-01-30T23:39:13.622Z,17.10
2023-01-30T23:41:44.151Z,16.83
2023-01-30T23:44:12.309Z,17.52
2023-01-30T23:46:41.904Z,14.63
2023-01-30T23:49:12.268Z,15.30
2023-01-30T23:51:42.211Z,14.60
2023-01-30T23:54:11.284Z,19.20
2023-01-30T23:56:41.284Z,14.82
2023-01-30T23:59:11.034Z,16.45
